Terminal Aerodrome Forecast
Issued by NWS

Home | Current Version | Previous Version | Graphics & Text | Print | Product List | Glossary On
Versions: 1 2 3 4 5 6 7 8 9 10 11 12 13 14 15 16 17
000
FTUS45 KGGW 142300
TAFGDV
TAF
KGDV 142320Z 1500/1524 VRB06KT P6SM SCT040 BKN250
     FM151500 15011KT P6SM BKN130
     FM151900 27015KT P6SM BKN250
      AMD LTD TO CLD VIS AND WIND=

USA.gov is the U.S. government's official web portal to all federal, state and local government web resources and services.